sensor_id;sensor_type;location;lat;lon;timestamp;P1;durP1;ratioP1;P2;durP2;ratioP2
50549;SDS011;36505;52.512;13.460;2022-11-15T00:01:15;52.15;;;29.33;;
50549;SDS011;36505;52.512;13.460;2022-11-15T00:03:42;57.60;;;28.30;;
50549;SDS011;36505;52.512;13.460;2022-11-15T00:06:08;54.35;;;28.50;;
50549;SDS011;36505;52.512;13.460;2022-11-15T00:08:34;59.25;;;28.67;;
50549;SDS011;36505;52.512;13.460;2022-11-15T00:11:00;58.25;;;27.85;;
50549;SDS011;36505;52.512;13.460;2022-11-15T00:13:27;55.20;;;28.38;;
50549;SDS011;36505;52.512;13.460;2022-11-15T00:15:55;55.40;;;27.85;;
50549;SDS011;36505;52.512;13.460;2022-11-15T00:18:22;63.03;;;29.20;;
50549;SDS011;36505;52.512;13.460;2022-11-15T00:20:47;56.50;;;28.48;;
50549;SDS011;36505;52.512;13.460;2022-11-15T00:23:12;59.40;;;27.63;;
50549;SDS011;36505;52.512;13.460;2022-11-15T00:25:38;55.58;;;28.00;;
50549;SDS011;36505;52.512;13.460;2022-11-15T00:28:03;54.30;;;29.17;;
50549;SDS011;36505;52.512;13.460;2022-11-15T00:30:29;60.15;;;28.20;;
50549;SDS011;36505;52.512;13.460;2022-11-15T00:32:54;57.42;;;29.70;;
50549;SDS011;36505;52.512;13.460;2022-11-15T00:35:20;57.80;;;30.00;;
50549;SDS011;36505;52.512;13.460;2022-11-15T00:37:46;60.53;;;29.02;;
50549;SDS011;36505;52.512;13.460;2022-11-15T00:40:13;67.22;;;28.40;;
50549;SDS011;36505;52.512;13.460;2022-11-15T00:42:39;58.17;;;27.88;;
50549;SDS011;36505;52.512;13.460;2022-11-15T00:45:04;57.78;;;29.92;;
50549;SDS011;36505;52.512;13.460;2022-11-15T00:47:30;58.95;;;29.33;;
50549;SDS011;36505;52.512;13.460;2022-11-15T00:49:56;58.67;;;29.55;;
50549;SDS011;36505;52.512;13.460;2022-11-15T00:52:21;55.88;;;28.90;;
50549;SDS011;36505;52.512;13.460;2022-11-15T00:54:47;58.90;;;30.88;;
50549;SDS011;36505;52.512;13.460;2022-11-15T00:57:12;58.55;;;29.38;;
50549;SDS011;36505;52.512;13.460;2022-11-15T00:59:38;54.53;;;27.98;;
50549;SDS011;36505;52.512;13.460;2022-11-15T01:02:03;56.30;;;28.75;;
50549;SDS011;36505;52.512;13.460;2022-11-15T01:04:28;62.05;;;29.88;;
50549;SDS011;36505;52.512;13.460;2022-11-15T01:06:54;59.53;;;28.60;;
50549;SDS011;36505;52.512;13.460;2022-11-15T01:09:19;59.67;;;29.10;;
50549;SDS011;36505;52.512;13.460;2022-11-15T01:11:45;59.92;;;28.27;;
50549;SDS011;36505;52.512;13.460;2022-11-15T01:14:10;59.67;;;28.85;;
50549;SDS011;36505;52.512;13.460;2022-11-15T01:16:36;61.15;;;29.95;;
50549;SDS011;36505;52.512;13.460;2022-11-15T01:19:01;58.90;;;28.58;;
50549;SDS011;36505;52.512;13.460;2022-11-15T01:21:27;57.45;;;28.85;;
50549;SDS011;36505;52.512;13.460;2022-11-15T01:23:53;57.53;;;29.17;;
50549;SDS011;36505;52.512;13.460;2022-11-15T01:26:20;61.65;;;29.08;;
50549;SDS011;36505;52.512;13.460;2022-11-15T01:28:45;56.38;;;28.75;;
50549;SDS011;36505;52.512;13.460;2022-11-15T01:31:18;60.83;;;30.05;;
50549;SDS011;36505;52.512;13.460;2022-11-15T01:33:45;64.03;;;30.85;;
50549;SDS011;36505;52.512;13.460;2022-11-15T01:36:12;55.08;;;26.63;;
50549;SDS011;36505;52.512;13.460;2022-11-15T01:38:40;56.55;;;28.33;;
50549;SDS011;36505;52.512;13.460;2022-11-15T01:41:05;57.97;;;28.88;;
50549;SDS011;36505;52.512;13.460;2022-11-15T01:43:34;52.15;;;28.10;;
50549;SDS011;36505;52.512;13.460;2022-11-15T01:46:06;53.90;;;28.10;;
50549;SDS011;36505;52.512;13.460;2022-11-15T01:48:46;54.08;;;28.00;;
50549;SDS011;36505;52.512;13.460;2022-11-15T01:51:14;58.40;;;29.00;;
50549;SDS011;36505;52.512;13.460;2022-11-15T01:53:43;55.28;;;27.92;;
50549;SDS011;36505;52.512;13.460;2022-11-15T01:56:14;53.97;;;28.60;;
50549;SDS011;36505;52.512;13.460;2022-11-15T01:58:46;63.33;;;30.23;;
50549;SDS011;36505;52.512;13.460;2022-11-15T02:01:12;59.00;;;29.02;;
50549;SDS011;36505;52.512;13.460;2022-11-15T02:03:43;62.03;;;29.80;;
50549;SDS011;36505;52.512;13.460;2022-11-15T02:06:14;59.78;;;28.33;;
50549;SDS011;36505;52.512;13.460;2022-11-15T02:08:40;55.22;;;27.40;;
50549;SDS011;36505;52.512;13.460;2022-11-15T02:11:09;58.55;;;29.35;;
50549;SDS011;36505;52.512;13.460;2022-11-15T02:13:35;61.58;;;30.08;;
50549;SDS011;36505;52.512;13.460;2022-11-15T02:18:37;59.05;;;29.02;;
50549;SDS011;36505;52.512;13.460;2022-11-15T02:21:11;53.35;;;28.90;;
50549;SDS011;36505;52.512;13.460;2022-11-15T02:29:48;58.92;;;28.38;;
50549;SDS011;36505;52.512;13.460;2022-11-15T02:37:58;58.33;;;30.02;;
50549;SDS011;36505;52.512;13.460;2022-11-15T02:43:09;64.97;;;31.20;;
50549;SDS011;36505;52.512;13.460;2022-11-15T02:46:18;51.70;;;28.88;;
50549;SDS011;36505;52.512;13.460;2022-11-15T02:49:20;59.17;;;30.02;;
50549;SDS011;36505;52.512;13.460;2022-11-15T02:51:46;58.83;;;31.02;;
50549;SDS011;36505;52.512;13.460;2022-11-15T02:54:15;58.83;;;28.23;;
50549;SDS011;36505;52.512;13.460;2022-11-15T02:56:45;57.22;;;28.33;;
50549;SDS011;36505;52.512;13.460;2022-11-15T03:07:02;55.10;;;27.48;;
50549;SDS011;36505;52.512;13.460;2022-11-15T03:09:47;55.78;;;28.65;;
50549;SDS011;36505;52.512;13.460;2022-11-15T03:15:12;56.60;;;27.98;;
50549;SDS011;36505;52.512;13.460;2022-11-15T03:17:48;58.33;;;29.83;;
50549;SDS011;36505;52.512;13.460;2022-11-15T03:20:17;52.70;;;27.75;;
50549;SDS011;36505;52.512;13.460;2022-11-15T03:22:44;62.55;;;31.25;;
50549;SDS011;36505;52.512;13.460;2022-11-15T03:25:13;56.47;;;30.00;;
50549;SDS011;36505;52.512;13.460;2022-11-15T03:27:46;53.47;;;28.10;;
50549;SDS011;36505;52.512;13.460;2022-11-15T03:30:15;56.58;;;28.48;;
50549;SDS011;36505;52.512;13.460;2022-11-15T03:32:43;52.72;;;28.48;;
50549;SDS011;36505;52.512;13.460;2022-11-15T03:35:13;53.17;;;28.98;;
50549;SDS011;36505;52.512;13.460;2022-11-15T03:37:49;57.05;;;28.23;;
50549;SDS011;36505;52.512;13.460;2022-11-15T03:40:47;58.05;;;28.63;;
50549;SDS011;36505;52.512;13.460;2022-11-15T03:46:14;57.05;;;28.77;;
50549;SDS011;36505;52.512;13.460;2022-11-15T03:49:08;53.53;;;27.75;;
50549;SDS011;36505;52.512;13.460;2022-11-15T03:51:36;55.63;;;30.60;;
50549;SDS011;36505;52.512;13.460;2022-11-15T03:54:03;55.60;;;28.15;;
50549;SDS011;36505;52.512;13.460;2022-11-15T03:56:29;53.97;;;28.73;;
50549;SDS011;36505;52.512;13.460;2022-11-15T03:58:54;59.80;;;27.52;;
50549;SDS011;36505;52.512;13.460;2022-11-15T04:01:19;57.47;;;28.75;;
50549;SDS011;36505;52.512;13.460;2022-11-15T04:03:45;56.67;;;28.90;;
50549;SDS011;36505;52.512;13.460;2022-11-15T04:06:10;52.42;;;27.48;;
50549;SDS011;36505;52.512;13.460;2022-11-15T04:08:36;56.85;;;28.30;;
50549;SDS011;36505;52.512;13.460;2022-11-15T04:11:01;57.17;;;28.52;;
50549;SDS011;36505;52.512;13.460;2022-11-15T04:13:27;49.17;;;26.90;;
50549;SDS011;36505;52.512;13.460;2022-11-15T04:15:52;51.30;;;27.15;;
50549;SDS011;36505;52.512;13.460;2022-11-15T04:18:17;49.08;;;25.52;;
50549;SDS011;36505;52.512;13.460;2022-11-15T04:20:43;54.10;;;28.27;;
50549;SDS011;36505;52.512;13.460;2022-11-15T04:23:27;54.15;;;26.10;;
50549;SDS011;36505;52.512;13.460;2022-11-15T04:26:12;53.67;;;28.35;;
50549;SDS011;36505;52.512;13.460;2022-11-15T04:28:41;56.80;;;28.17;;
50549;SDS011;36505;52.512;13.460;2022-11-15T04:31:25;59.22;;;29.92;;
50549;SDS011;36505;52.512;13.460;2022-11-15T04:33:50;50.63;;;27.20;;
50549;SDS011;36505;52.512;13.460;2022-11-15T04:36:16;53.67;;;28.65;;
50549;SDS011;36505;52.512;13.460;2022-11-15T04:39:00;59.88;;;29.00;;
50549;SDS011;36505;52.512;13.460;2022-11-15T04:41:25;55.25;;;28.48;;
50549;SDS011;36505;52.512;13.460;2022-11-15T04:43:50;53.45;;;27.98;;
50549;SDS011;36505;52.512;13.460;2022-11-15T04:46:16;52.55;;;26.60;;
50549;SDS011;36505;52.512;13.460;2022-11-15T04:48:42;54.53;;;26.65;;
50549;SDS011;36505;52.512;13.460;2022-11-15T04:51:07;59.42;;;29.42;;
50549;SDS011;36505;52.512;13.460;2022-11-15T04:53:33;60.28;;;31.67;;
50549;SDS011;36505;52.512;13.460;2022-11-15T04:55:58;58.50;;;28.13;;
50549;SDS011;36505;52.512;13.460;2022-11-15T04:58:23;61.63;;;31.80;;
50549;SDS011;36505;52.512;13.460;2022-11-15T05:00:49;58.53;;;28.98;;
50549;SDS011;36505;52.512;13.460;2022-11-15T05:03:14;53.20;;;26.27;;
50549;SDS011;36505;52.512;13.460;2022-11-15T05:05:58;53.03;;;26.58;;
50549;SDS011;36505;52.512;13.460;2022-11-15T05:08:24;53.78;;;27.67;;
50549;SDS011;36505;52.512;13.460;2022-11-15T05:10:50;52.88;;;28.45;;
50549;SDS011;36505;52.512;13.460;2022-11-15T05:13:17;59.33;;;28.63;;
50549;SDS011;36505;52.512;13.460;2022-11-15T05:15:43;56.00;;;28.23;;
50549;SDS011;36505;52.512;13.460;2022-11-15T05:18:08;55.83;;;29.27;;
50549;SDS011;36505;52.512;13.460;2022-11-15T05:20:34;51.95;;;27.52;;
50549;SDS011;36505;52.512;13.460;2022-11-15T05:23:00;54.08;;;27.85;;
50549;SDS011;36505;52.512;13.460;2022-11-15T05:25:26;56.97;;;27.80;;
50549;SDS011;36505;52.512;13.460;2022-11-15T05:27:52;57.45;;;28.45;;
50549;SDS011;36505;52.512;13.460;2022-11-15T05:30:17;56.55;;;26.80;;
50549;SDS011;36505;52.512;13.460;2022-11-15T05:32:43;51.60;;;27.58;;
50549;SDS011;36505;52.512;13.460;2022-11-15T05:35:11;55.40;;;28.33;;
50549;SDS011;36505;52.512;13.460;2022-11-15T05:37:40;55.17;;;27.45;;
50549;SDS011;36505;52.512;13.460;2022-11-15T05:40:06;52.58;;;26.75;;
50549;SDS011;36505;52.512;13.460;2022-11-15T05:42:31;55.28;;;28.20;;
50549;SDS011;36505;52.512;13.460;2022-11-15T05:44:57;57.08;;;28.75;;
50549;SDS011;36505;52.512;13.460;2022-11-15T05:47:25;53.58;;;28.60;;
50549;SDS011;36505;52.512;13.460;2022-11-15T05:49:53;54.65;;;28.05;;
50549;SDS011;36505;52.512;13.460;2022-11-15T05:52:20;56.95;;;28.55;;
50549;SDS011;36505;52.512;13.460;2022-11-15T05:54:50;52.92;;;29.65;;
50549;SDS011;36505;52.512;13.460;2022-11-15T05:57:15;60.15;;;28.42;;
50549;SDS011;36505;52.512;13.460;2022-11-15T05:59:41;52.88;;;27.85;;
50549;SDS011;36505;52.512;13.460;2022-11-15T06:02:08;50.45;;;26.35;;
50549;SDS011;36505;52.512;13.460;2022-11-15T06:04:34;61.92;;;30.38;;
50549;SDS011;36505;52.512;13.460;2022-11-15T06:07:00;50.97;;;27.02;;
50549;SDS011;36505;52.512;13.460;2022-11-15T06:09:25;50.42;;;26.10;;
50549;SDS011;36505;52.512;13.460;2022-11-15T06:11:51;57.10;;;28.73;;
50549;SDS011;36505;52.512;13.460;2022-11-15T06:14:16;60.58;;;27.40;;
50549;SDS011;36505;52.512;13.460;2022-11-15T06:16:41;53.45;;;27.13;;
50549;SDS011;36505;52.512;13.460;2022-11-15T06:19:07;50.05;;;26.30;;
50549;SDS011;36505;52.512;13.460;2022-11-15T06:21:32;53.67;;;27.65;;
50549;SDS011;36505;52.512;13.460;2022-11-15T06:23:58;54.90;;;27.90;;
50549;SDS011;36505;52.512;13.460;2022-11-15T06:26:23;51.78;;;27.95;;
50549;SDS011;36505;52.512;13.460;2022-11-15T06:28:49;59.72;;;28.13;;
50549;SDS011;36505;52.512;13.460;2022-11-15T06:31:14;56.60;;;28.25;;
50549;SDS011;36505;52.512;13.460;2022-11-15T06:33:40;59.10;;;29.25;;
50549;SDS011;36505;52.512;13.460;2022-11-15T06:36:06;53.45;;;27.45;;
50549;SDS011;36505;52.512;13.460;2022-11-15T06:38:33;59.92;;;28.20;;
50549;SDS011;36505;52.512;13.460;2022-11-15T06:41:03;59.25;;;28.50;;
50549;SDS011;36505;52.512;13.460;2022-11-15T06:43:29;55.15;;;27.70;;
50549;SDS011;36505;52.512;13.460;2022-11-15T06:45:55;62.22;;;29.90;;
50549;SDS011;36505;52.512;13.460;2022-11-15T06:48:20;52.75;;;28.42;;
50549;SDS011;36505;52.512;13.460;2022-11-15T06:50:52;55.03;;;28.23;;
50549;SDS011;36505;52.512;13.460;2022-11-15T06:53:19;54.28;;;27.95;;
50549;SDS011;36505;52.512;13.460;2022-11-15T06:55:44;53.33;;;28.80;;
50549;SDS011;36505;52.512;13.460;2022-11-15T06:58:10;66.80;;;29.42;;
50549;SDS011;36505;52.512;13.460;2022-11-15T07:00:35;55.35;;;28.20;;
50549;SDS011;36505;52.512;13.460;2022-11-15T07:03:00;54.15;;;27.67;;
50549;SDS011;36505;52.512;13.460;2022-11-15T07:05:27;51.08;;;26.98;;
50549;SDS011;36505;52.512;13.460;2022-11-15T07:07:53;52.97;;;27.45;;
50549;SDS011;36505;52.512;13.460;2022-11-15T07:10:20;53.15;;;25.80;;
50549;SDS011;36505;52.512;13.460;2022-11-15T07:12:50;45.78;;;25.83;;
50549;SDS011;36505;52.512;13.460;2022-11-15T07:15:20;45.38;;;25.95;;
50549;SDS011;36505;52.512;13.460;2022-11-15T07:17:53;44.35;;;23.33;;
50549;SDS011;36505;52.512;13.460;2022-11-15T07:20:18;46.13;;;24.95;;
50549;SDS011;36505;52.512;13.460;2022-11-15T07:22:44;44.60;;;24.45;;
50549;SDS011;36505;52.512;13.460;2022-11-15T07:25:12;40.25;;;22.10;;
50549;SDS011;36505;52.512;13.460;2022-11-15T07:27:38;45.00;;;24.65;;
50549;SDS011;36505;52.512;13.460;2022-11-15T07:30:03;42.00;;;22.92;;
50549;SDS011;36505;52.512;13.460;2022-11-15T07:32:30;48.40;;;23.90;;
50549;SDS011;36505;52.512;13.460;2022-11-15T07:34:55;42.28;;;23.23;;
50549;SDS011;36505;52.512;13.460;2022-11-15T07:37:21;56.05;;;24.17;;
50549;SDS011;36505;52.512;13.460;2022-11-15T07:39:46;48.92;;;25.83;;
50549;SDS011;36505;52.512;13.460;2022-11-15T07:42:11;45.65;;;23.50;;
50549;SDS011;36505;52.512;13.460;2022-11-15T07:44:55;46.50;;;22.10;;
50549;SDS011;36505;52.512;13.460;2022-11-15T07:47:21;38.70;;;21.40;;
50549;SDS011;36505;52.512;13.460;2022-11-15T07:49:46;45.08;;;25.10;;
50549;SDS011;36505;52.512;13.460;2022-11-15T07:52:12;41.00;;;22.92;;
50549;SDS011;36505;52.512;13.460;2022-11-15T07:54:38;45.05;;;22.60;;
50549;SDS011;36505;52.512;13.460;2022-11-15T07:57:04;41.00;;;23.90;;
50549;SDS011;36505;52.512;13.460;2022-11-15T07:59:30;44.83;;;22.67;;
50549;SDS011;36505;52.512;13.460;2022-11-15T08:01:59;45.95;;;24.90;;
50549;SDS011;36505;52.512;13.460;2022-11-15T08:04:25;45.75;;;24.15;;
50549;SDS011;36505;52.512;13.460;2022-11-15T08:06:50;40.67;;;22.13;;
50549;SDS011;36505;52.512;13.460;2022-11-15T08:09:15;46.75;;;25.20;;
50549;SDS011;36505;52.512;13.460;2022-11-15T08:11:41;39.92;;;24.13;;
50549;SDS011;36505;52.512;13.460;2022-11-15T08:14:06;39.85;;;22.30;;
50549;SDS011;36505;52.512;13.460;2022-11-15T08:16:31;46.03;;;23.27;;
50549;SDS011;36505;52.512;13.460;2022-11-15T08:18:57;44.45;;;23.27;;
50549;SDS011;36505;52.512;13.460;2022-11-15T08:21:22;43.72;;;23.42;;
50549;SDS011;36505;52.512;13.460;2022-11-15T08:23:48;43.38;;;22.83;;
50549;SDS011;36505;52.512;13.460;2022-11-15T08:26:13;40.47;;;22.08;;
50549;SDS011;36505;52.512;13.460;2022-11-15T08:28:39;43.85;;;23.98;;
50549;SDS011;36505;52.512;13.460;2022-11-15T08:31:04;39.38;;;22.65;;
50549;SDS011;36505;52.512;13.460;2022-11-15T08:33:31;43.75;;;22.58;;
50549;SDS011;36505;52.512;13.460;2022-11-15T08:35:58;43.60;;;23.77;;
50549;SDS011;36505;52.512;13.460;2022-11-15T08:38:24;39.60;;;22.05;;
50549;SDS011;36505;52.512;13.460;2022-11-15T08:40:51;44.47;;;22.98;;
50549;SDS011;36505;52.512;13.460;2022-11-15T08:43:18;40.00;;;23.95;;
50549;SDS011;36505;52.512;13.460;2022-11-15T08:45:44;60.85;;;21.98;;
50549;SDS011;36505;52.512;13.460;2022-11-15T08:48:10;37.28;;;21.42;;
50549;SDS011;36505;52.512;13.460;2022-11-15T08:50:35;44.35;;;21.90;;
50549;SDS011;36505;52.512;13.460;2022-11-15T08:53:04;33.72;;;20.20;;
50549;SDS011;36505;52.512;13.460;2022-11-15T08:55:31;34.33;;;21.40;;
50549;SDS011;36505;52.512;13.460;2022-11-15T08:57:57;32.72;;;19.77;;
50549;SDS011;36505;52.512;13.460;2022-11-15T09:00:23;39.05;;;21.95;;
50549;SDS011;36505;52.512;13.460;2022-11-15T09:02:48;44.88;;;21.67;;
50549;SDS011;36505;52.512;13.460;2022-11-15T09:05:14;35.00;;;22.38;;
50549;SDS011;36505;52.512;13.460;2022-11-15T09:07:40;41.72;;;21.63;;
50549;SDS011;36505;52.512;13.460;2022-11-15T09:10:06;34.60;;;21.08;;
50549;SDS011;36505;52.512;13.460;2022-11-15T09:12:31;38.25;;;21.30;;
50549;SDS011;36505;52.512;13.460;2022-11-15T09:14:57;31.15;;;20.02;;
50549;SDS011;36505;52.512;13.460;2022-11-15T09:17:23;31.80;;;21.85;;
50549;SDS011;36505;52.512;13.460;2022-11-15T09:19:48;31.05;;;19.08;;
50549;SDS011;36505;52.512;13.460;2022-11-15T09:22:13;32.22;;;20.35;;
50549;SDS011;36505;52.512;13.460;2022-11-15T09:24:39;28.85;;;18.77;;
50549;SDS011;36505;52.512;13.460;2022-11-15T09:27:04;33.15;;;19.33;;
50549;SDS011;36505;52.512;13.460;2022-11-15T09:29:30;26.65;;;18.67;;
50549;SDS011;36505;52.512;13.460;2022-11-15T09:31:55;29.17;;;18.55;;
50549;SDS011;36505;52.512;13.460;2022-11-15T09:34:20;27.13;;;16.83;;
50549;SDS011;36505;52.512;13.460;2022-11-15T09:36:46;28.88;;;18.23;;
50549;SDS011;36505;52.512;13.460;2022-11-15T09:39:11;29.23;;;17.75;;
50549;SDS011;36505;52.512;13.460;2022-11-15T09:50:19;27.45;;;18.58;;
50549;SDS011;36505;52.512;13.460;2022-11-15T09:56:26;32.60;;;18.30;;
50549;SDS011;36505;52.512;13.460;2022-11-15T10:01:34;27.27;;;16.95;;
50549;SDS011;36505;52.512;13.460;2022-11-15T10:04:01;29.55;;;18.38;;
50549;SDS011;36505;52.512;13.460;2022-11-15T10:06:27;30.38;;;16.42;;
50549;SDS011;36505;52.512;13.460;2022-11-15T10:09:01;32.20;;;16.48;;
50549;SDS011;36505;52.512;13.460;2022-11-15T10:11:43;29.42;;;18.38;;
50549;SDS011;36505;52.512;13.460;2022-11-15T10:14:13;28.35;;;16.45;;
50549;SDS011;36505;52.512;13.460;2022-11-15T10:19:26;31.42;;;16.05;;
50549;SDS011;36505;52.512;13.460;2022-11-15T10:24:50;25.90;;;15.68;;
50549;SDS011;36505;52.512;13.460;2022-11-15T10:27:25;27.08;;;15.73;;
50549;SDS011;36505;52.512;13.460;2022-11-15T10:29:50;24.95;;;14.55;;
50549;SDS011;36505;52.512;13.460;2022-11-15T10:32:17;22.63;;;15.10;;
50549;SDS011;36505;52.512;13.460;2022-11-15T10:34:45;23.10;;;14.85;;
50549;SDS011;36505;52.512;13.460;2022-11-15T10:37:11;21.27;;;12.85;;
50549;SDS011;36505;52.512;13.460;2022-11-15T10:39:36;22.48;;;13.93;;
50549;SDS011;36505;52.512;13.460;2022-11-15T10:42:24;20.92;;;12.98;;
50549;SDS011;36505;52.512;13.460;2022-11-15T10:44:52;20.88;;;12.52;;
50549;SDS011;36505;52.512;13.460;2022-11-15T10:49:53;23.55;;;14.27;;
50549;SDS011;36505;52.512;13.460;2022-11-15T10:52:20;25.30;;;13.07;;
50549;SDS011;36505;52.512;13.460;2022-11-15T10:54:48;21.33;;;13.52;;
50549;SDS011;36505;52.512;13.460;2022-11-15T10:57:31;23.65;;;14.13;;
50549;SDS011;36505;52.512;13.460;2022-11-15T11:00:03;20.67;;;14.23;;
50549;SDS011;36505;52.512;13.460;2022-11-15T11:06:07;22.85;;;13.50;;
50549;SDS011;36505;52.512;13.460;2022-11-15T11:08:37;21.27;;;12.88;;
50549;SDS011;36505;52.512;13.460;2022-11-15T11:11:04;22.77;;;12.80;;
50549;SDS011;36505;52.512;13.460;2022-11-15T11:13:34;22.88;;;13.50;;
50549;SDS011;36505;52.512;13.460;2022-11-15T11:21:14;20.10;;;12.52;;
50549;SDS011;36505;52.512;13.460;2022-11-15T11:23:54;25.52;;;14.05;;
50549;SDS011;36505;52.512;13.460;2022-11-15T11:26:35;21.13;;;12.63;;
50549;SDS011;36505;52.512;13.460;2022-11-15T11:50:45;20.80;;;13.50;;
50549;SDS011;36505;52.512;13.460;2022-11-15T11:53:12;25.67;;;14.35;;
50549;SDS011;36505;52.512;13.460;2022-11-15T11:55:47;26.85;;;14.25;;
50549;SDS011;36505;52.512;13.460;2022-11-15T11:58:23;22.67;;;12.70;;
50549;SDS011;36505;52.512;13.460;2022-11-15T12:00:56;28.33;;;15.35;;
50549;SDS011;36505;52.512;13.460;2022-11-15T12:06:05;26.27;;;14.70;;
50549;SDS011;36505;52.512;13.460;2022-11-15T12:08:53;28.25;;;14.65;;
50549;SDS011;36505;52.512;13.460;2022-11-15T12:17:11;27.08;;;14.40;;
50549;SDS011;36505;52.512;13.460;2022-11-15T12:19:38;24.05;;;14.65;;
50549;SDS011;36505;52.512;13.460;2022-11-15T12:22:08;24.27;;;13.88;;
50549;SDS011;36505;52.512;13.460;2022-11-15T12:27:42;29.15;;;14.20;;
50549;SDS011;36505;52.512;13.460;2022-11-15T12:30:20;27.23;;;14.77;;
50549;SDS011;36505;52.512;13.460;2022-11-15T12:32:52;26.92;;;14.68;;
50549;SDS011;36505;52.512;13.460;2022-11-15T12:35:30;24.92;;;13.10;;
50549;SDS011;36505;52.512;13.460;2022-11-15T12:38:02;23.77;;;13.82;;
50549;SDS011;36505;52.512;13.460;2022-11-15T12:40:35;21.77;;;13.45;;
50549;SDS011;36505;52.512;13.460;2022-11-15T12:45:34;25.83;;;14.35;;
50549;SDS011;36505;52.512;13.460;2022-11-15T12:58:43;26.38;;;14.20;;
50549;SDS011;36505;52.512;13.460;2022-11-15T13:06:47;25.25;;;14.70;;
50549;SDS011;36505;52.512;13.460;2022-11-15T13:12:03;25.95;;;13.23;;
50549;SDS011;36505;52.512;13.460;2022-11-15T13:17:02;24.45;;;13.35;;
50549;SDS011;36505;52.512;13.460;2022-11-15T13:20:08;24.45;;;14.13;;
50549;SDS011;36505;52.512;13.460;2022-11-15T13:22:44;19.70;;;11.95;;
50549;SDS011;36505;52.512;13.460;2022-11-15T13:30:35;22.65;;;12.43;;
50549;SDS011;36505;52.512;13.460;2022-11-15T13:33:08;24.83;;;10.85;;
50549;SDS011;36505;52.512;13.460;2022-11-15T13:35:38;23.30;;;11.77;;
50549;SDS011;36505;52.512;13.460;2022-11-15T13:38:06;19.30;;;10.73;;
50549;SDS011;36505;52.512;13.460;2022-11-15T13:40:43;28.92;;;12.05;;
50549;SDS011;36505;52.512;13.460;2022-11-15T13:48:43;19.88;;;11.60;;
50549;SDS011;36505;52.512;13.460;2022-11-15T13:53:51;23.63;;;12.55;;
50549;SDS011;36505;52.512;13.460;2022-11-15T13:56:20;20.50;;;12.55;;
50549;SDS011;36505;52.512;13.460;2022-11-15T13:58:46;20.85;;;12.52;;
50549;SDS011;36505;52.512;13.460;2022-11-15T14:01:17;23.73;;;13.18;;
50549;SDS011;36505;52.512;13.460;2022-11-15T14:06:22;19.17;;;12.07;;
50549;SDS011;36505;52.512;13.460;2022-11-15T14:11:34;19.65;;;12.30;;
50549;SDS011;36505;52.512;13.460;2022-11-15T14:14:03;18.25;;;12.05;;
50549;SDS011;36505;52.512;13.460;2022-11-15T14:16:40;21.38;;;11.77;;
50549;SDS011;36505;52.512;13.460;2022-11-15T14:19:33;22.55;;;12.85;;
50549;SDS011;36505;52.512;13.460;2022-11-15T14:24:43;24.17;;;12.80;;
50549;SDS011;36505;52.512;13.460;2022-11-15T14:27:17;22.30;;;12.68;;
50549;SDS011;36505;52.512;13.460;2022-11-15T14:32:13;20.08;;;12.25;;
50549;SDS011;36505;52.512;13.460;2022-11-15T14:34:44;23.67;;;13.05;;
50549;SDS011;36505;52.512;13.460;2022-11-15T14:39:47;21.08;;;12.00;;
50549;SDS011;36505;52.512;13.460;2022-11-15T14:42:12;26.05;;;13.27;;
50549;SDS011;36505;52.512;13.460;2022-11-15T14:44:38;22.63;;;13.52;;
50549;SDS011;36505;52.512;13.460;2022-11-15T14:47:03;19.70;;;13.00;;
50549;SDS011;36505;52.512;13.460;2022-11-15T14:49:28;24.00;;;12.50;;
50549;SDS011;36505;52.512;13.460;2022-11-15T14:51:54;27.30;;;13.98;;
50549;SDS011;36505;52.512;13.460;2022-11-15T14:54:19;25.08;;;14.00;;
50549;SDS011;36505;52.512;13.460;2022-11-15T14:56:44;23.90;;;14.15;;
50549;SDS011;36505;52.512;13.460;2022-11-15T14:59:10;27.92;;;13.98;;
50549;SDS011;36505;52.512;13.460;2022-11-15T15:01:35;27.75;;;13.15;;
50549;SDS011;36505;52.512;13.460;2022-11-15T15:04:00;27.55;;;15.48;;
50549;SDS011;36505;52.512;13.460;2022-11-15T15:06:26;23.85;;;14.45;;
50549;SDS011;36505;52.512;13.460;2022-11-15T15:08:51;28.35;;;16.63;;
50549;SDS011;36505;52.512;13.460;2022-11-15T15:11:22;24.42;;;14.35;;
50549;SDS011;36505;52.512;13.460;2022-11-15T15:13:50;26.25;;;15.05;;
50549;SDS011;36505;52.512;13.460;2022-11-15T15:16:17;26.33;;;13.90;;
50549;SDS011;36505;52.512;13.460;2022-11-15T15:18:42;24.45;;;14.45;;
50549;SDS011;36505;52.512;13.460;2022-11-15T15:21:15;28.98;;;15.27;;
50549;SDS011;36505;52.512;13.460;2022-11-15T15:23:45;23.20;;;14.07;;
50549;SDS011;36505;52.512;13.460;2022-11-15T15:26:10;28.23;;;17.42;;
50549;SDS011;36505;52.512;13.460;2022-11-15T15:28:35;27.58;;;14.55;;
50549;SDS011;36505;52.512;13.460;2022-11-15T15:31:02;26.20;;;14.40;;
50549;SDS011;36505;52.512;13.460;2022-11-15T15:33:27;33.08;;;14.50;;
50549;SDS011;36505;52.512;13.460;2022-11-15T15:35:52;27.45;;;14.10;;
50549;SDS011;36505;52.512;13.460;2022-11-15T15:38:18;26.52;;;15.48;;
50549;SDS011;36505;52.512;13.460;2022-11-15T15:40:43;26.27;;;14.30;;
50549;SDS011;36505;52.512;13.460;2022-11-15T15:43:09;26.50;;;14.63;;
50549;SDS011;36505;52.512;13.460;2022-11-15T15:45:35;27.83;;;13.93;;
50549;SDS011;36505;52.512;13.460;2022-11-15T15:48:03;24.15;;;14.35;;
50549;SDS011;36505;52.512;13.460;2022-11-15T15:50:34;25.05;;;14.55;;
50549;SDS011;36505;52.512;13.460;2022-11-15T15:53:02;23.23;;;13.73;;
50549;SDS011;36505;52.512;13.460;2022-11-15T15:55:28;25.95;;;14.80;;
50549;SDS011;36505;52.512;13.460;2022-11-15T15:57:54;24.73;;;13.38;;
50549;SDS011;36505;52.512;13.460;2022-11-15T16:00:20;43.90;;;16.27;;
50549;SDS011;36505;52.512;13.460;2022-11-15T16:02:48;24.63;;;14.73;;
50549;SDS011;36505;52.512;13.460;2022-11-15T16:05:14;39.00;;;16.60;;
50549;SDS011;36505;52.512;13.460;2022-11-15T16:07:39;27.15;;;16.02;;
50549;SDS011;36505;52.512;13.460;2022-11-15T16:12:42;30.02;;;16.02;;
50549;SDS011;36505;52.512;13.460;2022-11-15T16:15:07;33.00;;;16.17;;
50549;SDS011;36505;52.512;13.460;2022-11-15T16:17:35;30.00;;;15.30;;
50549;SDS011;36505;52.512;13.460;2022-11-15T16:20:03;26.30;;;15.25;;
50549;SDS011;36505;52.512;13.460;2022-11-15T16:22:30;28.15;;;15.13;;
50549;SDS011;36505;52.512;13.460;2022-11-15T16:24:55;30.42;;;16.02;;
50549;SDS011;36505;52.512;13.460;2022-11-15T16:27:21;32.28;;;16.48;;
50549;SDS011;36505;52.512;13.460;2022-11-15T16:29:48;31.80;;;17.73;;
50549;SDS011;36505;52.512;13.460;2022-11-15T16:32:14;30.60;;;17.90;;
50549;SDS011;36505;52.512;13.460;2022-11-15T16:34:40;28.60;;;17.70;;
50549;SDS011;36505;52.512;13.460;2022-11-15T16:37:05;33.40;;;20.05;;
50549;SDS011;36505;52.512;13.460;2022-11-15T16:39:33;33.45;;;19.15;;
50549;SDS011;36505;52.512;13.460;2022-11-15T16:41:59;33.88;;;19.38;;
50549;SDS011;36505;52.512;13.460;2022-11-15T16:44:24;36.88;;;20.02;;